sensor_id;sensor_type;location;lat;lon;timestamp;pressure;altitude;pressure_sealevel;temperature;humidity
71996;BME280;59862;47.732;7.346;2023-03-19T00:02:05;97827.30;;;10.13;67.18
71996;BME280;59862;47.732;7.346;2023-03-19T00:04:32;97835.34;;;10.27;66.08
71996;BME280;59862;47.732;7.346;2023-03-19T00:07:00;97837.64;;;10.45;66.21
71996;BME280;59862;47.732;7.346;2023-03-19T00:09:27;97837.88;;;10.54;65.77
71996;BME280;59862;47.732;7.346;2023-03-19T00:11:55;97840.70;;;10.56;67.56
71996;BME280;59862;47.732;7.346;2023-03-19T00:14:23;97835.58;;;10.61;66.98
71996;BME280;59862;47.732;7.346;2023-03-19T00:16:51;97843.19;;;10.58;66.00
71996;BME280;59862;47.732;7.346;2023-03-19T00:19:18;97843.09;;;10.51;66.78
71996;BME280;59862;47.732;7.346;2023-03-19T00:21:45;97842.66;;;10.48;67.00
71996;BME280;59862;47.732;7.346;2023-03-19T00:24:13;97846.03;;;10.46;64.91
71996;BME280;59862;47.732;7.346;2023-03-19T00:26:42;97845.89;;;10.43;61.26
71996;BME280;59862;47.732;7.346;2023-03-19T00:29:10;97841.81;;;10.47;61.10
71996;BME280;59862;47.732;7.346;2023-03-19T00:31:38;97850.34;;;10.61;63.37
71996;BME280;59862;47.732;7.346;2023-03-19T00:34:06;97848.94;;;10.65;61.52
71996;BME280;59862;47.732;7.346;2023-03-19T00:36:34;97854.98;;;10.68;62.15
71996;BME280;59862;47.732;7.346;2023-03-19T00:39:03;97854.98;;;10.68;62.15
71996;BME280;59862;47.732;7.346;2023-03-19T00:41:31;97852.94;;;10.70;60.16
71996;BME280;59862;47.732;7.346;2023-03-19T00:43:59;97852.94;;;10.70;60.16
71996;BME280;59862;47.732;7.346;2023-03-19T00:46:26;97849.80;;;10.77;61.15
71996;BME280;59862;47.732;7.346;2023-03-19T00:48:53;97850.28;;;10.80;61.35
71996;BME280;59862;47.732;7.346;2023-03-19T00:51:23;97851.14;;;10.77;59.99
71996;BME280;59862;47.732;7.346;2023-03-19T00:53:51;97853.20;;;10.85;61.18
71996;BME280;59862;47.732;7.346;2023-03-19T00:56:19;97853.20;;;10.85;61.18
71996;BME280;59862;47.732;7.346;2023-03-19T00:58:47;97859.05;;;10.89;61.78
71996;BME280;59862;47.732;7.346;2023-03-19T01:01:16;97855.08;;;10.85;62.21
71996;BME280;59862;47.732;7.346;2023-03-19T01:03:47;97863.55;;;10.78;60.54
71996;BME280;59862;47.732;7.346;2023-03-19T01:06:14;97866.61;;;10.75;58.21
71996;BME280;59862;47.732;7.346;2023-03-19T01:08:41;97864.78;;;10.86;57.86
71996;BME280;59862;47.732;7.346;2023-03-19T01:11:11;97864.78;;;10.86;57.86
71996;BME280;59862;47.732;7.346;2023-03-19T01:13:40;97868.81;;;10.86;57.43
71996;BME280;59862;47.732;7.346;2023-03-19T01:16:08;97867.75;;;10.91;56.02
71996;BME280;59862;47.732;7.346;2023-03-19T01:18:36;97867.75;;;10.91;56.02
71996;BME280;59862;47.732;7.346;2023-03-19T01:21:04;97867.06;;;11.03;56.53
71996;BME280;59862;47.732;7.346;2023-03-19T01:23:33;97855.27;;;10.94;56.20
71996;BME280;59862;47.732;7.346;2023-03-19T01:26:01;97855.27;;;10.94;56.20
71996;BME280;59862;47.732;7.346;2023-03-19T01:28:28;97865.44;;;10.98;55.33
71996;BME280;59862;47.732;7.346;2023-03-19T01:31:00;97860.98;;;11.05;55.78
71996;BME280;59862;47.732;7.346;2023-03-19T01:33:28;97863.75;;;11.12;57.12
71996;BME280;59862;47.732;7.346;2023-03-19T01:35:55;97853.70;;;11.10;56.04
71996;BME280;59862;47.732;7.346;2023-03-19T01:38:24;97854.69;;;11.13;56.36
71996;BME280;59862;47.732;7.346;2023-03-19T01:40:53;97862.60;;;11.10;57.08
71996;BME280;59862;47.732;7.346;2023-03-19T01:43:25;97852.30;;;11.14;57.09
71996;BME280;59862;47.732;7.346;2023-03-19T01:46:06;97852.87;;;11.09;57.97
71996;BME280;59862;47.732;7.346;2023-03-19T01:48:45;97856.32;;;11.03;58.41
71996;BME280;59862;47.732;7.346;2023-03-19T01:51:19;97861.90;;;10.87;56.19
71996;BME280;59862;47.732;7.346;2023-03-19T01:53:46;97861.90;;;10.87;56.19
71996;BME280;59862;47.732;7.346;2023-03-19T01:56:21;97859.14;;;10.81;58.11
71996;BME280;59862;47.732;7.346;2023-03-19T01:58:52;97855.28;;;10.68;58.58
71996;BME280;59862;47.732;7.346;2023-03-19T02:01:20;97851.68;;;10.61;59.16
71996;BME280;59862;47.732;7.346;2023-03-19T02:03:49;97851.68;;;10.61;59.16
71996;BME280;59862;47.732;7.346;2023-03-19T02:06:19;97856.15;;;10.54;59.23
71996;BME280;59862;47.732;7.346;2023-03-19T02:08:49;97856.70;;;10.50;58.70
71996;BME280;59862;47.732;7.346;2023-03-19T02:11:18;97854.63;;;10.41;59.57
71996;BME280;59862;47.732;7.346;2023-03-19T02:13:47;97855.05;;;10.34;59.65
71996;BME280;59862;47.732;7.346;2023-03-19T02:16:15;97857.30;;;10.27;58.75
71996;BME280;59862;47.732;7.346;2023-03-19T02:18:42;97857.30;;;10.27;58.75
71996;BME280;59862;47.732;7.346;2023-03-19T02:21:15;97857.19;;;10.24;58.54
71996;BME280;59862;47.732;7.346;2023-03-19T02:24:00;97852.36;;;10.34;59.44
71996;BME280;59862;47.732;7.346;2023-03-19T02:26:26;97862.05;;;10.35;59.26
71996;BME280;59862;47.732;7.346;2023-03-19T02:28:55;97856.84;;;10.38;59.79
71996;BME280;59862;47.732;7.346;2023-03-19T02:31:23;97863.23;;;10.37;60.12
71996;BME280;59862;47.732;7.346;2023-03-19T02:34:00;97858.32;;;10.40;60.34
71996;BME280;59862;47.732;7.346;2023-03-19T02:36:32;97860.22;;;10.36;60.81
71996;BME280;59862;47.732;7.346;2023-03-19T02:38:57;97859.86;;;10.39;60.58
71996;BME280;59862;47.732;7.346;2023-03-19T02:41:26;97865.38;;;10.37;60.06
71996;BME280;59862;47.732;7.346;2023-03-19T02:43:54;97866.17;;;10.42;59.94
71996;BME280;59862;47.732;7.346;2023-03-19T02:46:23;97874.20;;;10.46;60.49
71996;BME280;59862;47.732;7.346;2023-03-19T02:48:50;97870.77;;;10.52;61.28
71996;BME280;59862;47.732;7.346;2023-03-19T02:51:18;97867.83;;;10.57;60.44
71996;BME280;59862;47.732;7.346;2023-03-19T02:53:46;97871.80;;;10.61;60.02
71996;BME280;59862;47.732;7.346;2023-03-19T02:56:13;97867.13;;;10.59;60.49
71996;BME280;59862;47.732;7.346;2023-03-19T02:58:41;97864.14;;;10.58;60.12
71996;BME280;59862;47.732;7.346;2023-03-19T03:01:08;97864.14;;;10.58;60.12
71996;BME280;59862;47.732;7.346;2023-03-19T03:03:35;97868.03;;;10.56;60.57
71996;BME280;59862;47.732;7.346;2023-03-19T03:06:03;97872.16;;;10.48;60.74
71996;BME280;59862;47.732;7.346;2023-03-19T03:08:31;97876.11;;;10.37;59.79
71996;BME280;59862;47.732;7.346;2023-03-19T03:10:58;97879.88;;;10.32;60.08
71996;BME280;59862;47.732;7.346;2023-03-19T03:13:26;97883.56;;;10.31;59.91
71996;BME280;59862;47.732;7.346;2023-03-19T03:15:53;97883.56;;;10.31;59.91
71996;BME280;59862;47.732;7.346;2023-03-19T03:18:21;97882.22;;;10.31;59.52
71996;BME280;59862;47.732;7.346;2023-03-19T03:20:48;97886.89;;;10.33;58.89
71996;BME280;59862;47.732;7.346;2023-03-19T03:23:16;97880.13;;;10.37;59.70
71996;BME280;59862;47.732;7.346;2023-03-19T03:25:44;97885.74;;;10.32;58.81
71996;BME280;59862;47.732;7.346;2023-03-19T03:28:13;97882.97;;;10.25;59.85
71996;BME280;59862;47.732;7.346;2023-03-19T03:30:40;97885.14;;;10.26;58.91
71996;BME280;59862;47.732;7.346;2023-03-19T03:33:07;97886.09;;;10.29;60.47
71996;BME280;59862;47.732;7.346;2023-03-19T03:35:35;97887.08;;;10.17;59.64
71996;BME280;59862;47.732;7.346;2023-03-19T03:38:04;97895.03;;;10.25;59.37
71996;BME280;59862;47.732;7.346;2023-03-19T03:40:32;97893.64;;;10.29;59.64
71996;BME280;59862;47.732;7.346;2023-03-19T03:43:00;97894.77;;;10.35;59.73
71996;BME280;59862;47.732;7.346;2023-03-19T03:45:27;97890.11;;;10.33;60.05
71996;BME280;59862;47.732;7.346;2023-03-19T03:47:55;97898.50;;;10.30;60.15
71996;BME280;59862;47.732;7.346;2023-03-19T03:50:22;97899.01;;;10.29;60.16
71996;BME280;59862;47.732;7.346;2023-03-19T03:52:50;97899.01;;;10.29;60.16
71996;BME280;59862;47.732;7.346;2023-03-19T03:55:17;97897.06;;;10.23;60.67
71996;BME280;59862;47.732;7.346;2023-03-19T03:57:45;97892.40;;;10.21;59.92
71996;BME280;59862;47.732;7.346;2023-03-19T04:00:13;97898.16;;;10.29;60.27
71996;BME280;59862;47.732;7.346;2023-03-19T04:02:40;97898.70;;;10.28;60.29
71996;BME280;59862;47.732;7.346;2023-03-19T04:05:08;97892.20;;;10.23;60.67
71996;BME280;59862;47.732;7.346;2023-03-19T04:07:36;97890.41;;;10.19;59.49
71996;BME280;59862;47.732;7.346;2023-03-19T04:10:04;97896.61;;;10.20;60.15
71996;BME280;59862;47.732;7.346;2023-03-19T04:12:33;97899.80;;;10.19;60.43
71996;BME280;59862;47.732;7.346;2023-03-19T04:15:00;97902.73;;;10.06;59.73
71996;BME280;59862;47.732;7.346;2023-03-19T04:17:27;97909.34;;;9.99;60.32
71996;BME280;59862;47.732;7.346;2023-03-19T04:19:55;97912.86;;;10.00;58.94
71996;BME280;59862;47.732;7.346;2023-03-19T04:22:22;97917.98;;;10.05;58.66
71996;BME280;59862;47.732;7.346;2023-03-19T04:24:50;97912.72;;;10.16;58.74
71996;BME280;59862;47.732;7.346;2023-03-19T04:27:17;97918.95;;;10.12;57.34
71996;BME280;59862;47.732;7.346;2023-03-19T04:29:45;97920.30;;;10.12;58.11
71996;BME280;59862;47.732;7.346;2023-03-19T04:32:12;97919.16;;;10.07;57.64
71996;BME280;59862;47.732;7.346;2023-03-19T04:34:40;97922.73;;;9.99;58.25
71996;BME280;59862;47.732;7.346;2023-03-19T04:37:08;97927.09;;;10.00;57.55
71996;BME280;59862;47.732;7.346;2023-03-19T04:39:36;97923.39;;;10.01;58.41
71996;BME280;59862;47.732;7.346;2023-03-19T04:42:04;97919.41;;;9.97;58.11
71996;BME280;59862;47.732;7.346;2023-03-19T04:44:31;97922.17;;;9.89;58.59
71996;BME280;59862;47.732;7.346;2023-03-19T04:46:58;97921.52;;;9.87;57.18
71996;BME280;59862;47.732;7.346;2023-03-19T04:49:26;97923.59;;;9.77;57.36
71996;BME280;59862;47.732;7.346;2023-03-19T04:51:54;97926.20;;;9.66;57.42
71996;BME280;59862;47.732;7.346;2023-03-19T04:54:21;97922.37;;;9.65;58.59
71996;BME280;59862;47.732;7.346;2023-03-19T04:56:50;97924.77;;;9.56;58.64
71996;BME280;59862;47.732;7.346;2023-03-19T04:59:18;97924.34;;;9.48;59.43
71996;BME280;59862;47.732;7.346;2023-03-19T05:01:46;97927.89;;;9.41;58.97
71996;BME280;59862;47.732;7.346;2023-03-19T05:04:13;97927.98;;;9.29;60.50
71996;BME280;59862;47.732;7.346;2023-03-19T05:06:40;97928.02;;;9.21;59.77
71996;BME280;59862;47.732;7.346;2023-03-19T05:09:08;97936.10;;;9.12;60.53
71996;BME280;59862;47.732;7.346;2023-03-19T05:11:35;97936.16;;;9.04;60.70
71996;BME280;59862;47.732;7.346;2023-03-19T05:14:03;97934.55;;;8.91;61.10
71996;BME280;59862;47.732;7.346;2023-03-19T05:16:31;97933.24;;;8.79;61.58
71996;BME280;59862;47.732;7.346;2023-03-19T05:18:59;97938.30;;;8.74;61.58
71996;BME280;59862;47.732;7.346;2023-03-19T05:21:27;97932.30;;;8.64;61.87
71996;BME280;59862;47.732;7.346;2023-03-19T05:23:54;97940.03;;;8.59;62.15
71996;BME280;59862;47.732;7.346;2023-03-19T05:26:22;97938.53;;;8.57;62.29
71996;BME280;59862;47.732;7.346;2023-03-19T05:28:51;97930.55;;;8.49;62.43
71996;BME280;59862;47.732;7.346;2023-03-19T05:31:18;97935.36;;;8.49;62.58
71996;BME280;59862;47.732;7.346;2023-03-19T05:33:46;97934.72;;;8.43;62.21
71996;BME280;59862;47.732;7.346;2023-03-19T05:36:13;97935.37;;;8.45;62.51
71996;BME280;59862;47.732;7.346;2023-03-19T05:38:41;97941.75;;;8.44;63.22
71996;BME280;59862;47.732;7.346;2023-03-19T05:41:08;97938.41;;;8.42;63.15
71996;BME280;59862;47.732;7.346;2023-03-19T05:43:36;97946.09;;;8.41;62.35
71996;BME280;59862;47.732;7.346;2023-03-19T05:46:03;97937.73;;;8.44;62.84
71996;BME280;59862;47.732;7.346;2023-03-19T05:48:31;97941.56;;;8.46;62.56
71996;BME280;59862;47.732;7.346;2023-03-19T05:50:58;97946.22;;;8.52;62.36
71996;BME280;59862;47.732;7.346;2023-03-19T05:53:26;97949.54;;;8.58;62.66
71996;BME280;59862;47.732;7.346;2023-03-19T05:55:53;97942.34;;;8.62;62.41
71996;BME280;59862;47.732;7.346;2023-03-19T05:58:21;97947.36;;;8.65;62.66
71996;BME280;59862;47.732;7.346;2023-03-19T06:00:48;97945.01;;;8.70;61.16
71996;BME280;59862;47.732;7.346;2023-03-19T06:03:17;97950.14;;;8.80;61.41
71996;BME280;59862;47.732;7.346;2023-03-19T06:05:44;97956.13;;;8.90;61.51
71996;BME280;59862;47.732;7.346;2023-03-19T06:08:13;97959.94;;;8.95;60.80
71996;BME280;59862;47.732;7.346;2023-03-19T06:10:40;97964.75;;;9.04;59.83
71996;BME280;59862;47.732;7.346;2023-03-19T06:13:08;97965.55;;;9.12;59.14
71996;BME280;59862;47.732;7.346;2023-03-19T06:15:35;97969.33;;;9.26;59.18
71996;BME280;59862;47.732;7.346;2023-03-19T06:18:03;97977.31;;;9.34;57.61
71996;BME280;59862;47.732;7.346;2023-03-19T06:20:31;97970.41;;;9.44;57.93
71996;BME280;59862;47.732;7.346;2023-03-19T06:22:58;97966.29;;;9.56;57.74
71996;BME280;59862;47.732;7.346;2023-03-19T06:25:26;97968.91;;;9.64;57.84
71996;BME280;59862;47.732;7.346;2023-03-19T06:27:54;97967.12;;;9.79;57.11
71996;BME280;59862;47.732;7.346;2023-03-19T06:30:21;97965.73;;;9.87;56.24
71996;BME280;59862;47.732;7.346;2023-03-19T06:32:49;97972.02;;;9.94;56.80
71996;BME280;59862;47.732;7.346;2023-03-19T06:35:17;97971.79;;;10.04;56.75
71996;BME280;59862;47.732;7.346;2023-03-19T06:37:44;97971.56;;;10.09;57.39
71996;BME280;59862;47.732;7.346;2023-03-19T06:40:13;97974.77;;;10.13;56.66
71996;BME280;59862;47.732;7.346;2023-03-19T06:42:45;97974.77;;;10.13;56.66
71996;BME280;59862;47.732;7.346;2023-03-19T06:45:13;97976.25;;;10.15;56.40
71996;BME280;59862;47.732;7.346;2023-03-19T06:47:45;97978.85;;;10.23;56.33
71996;BME280;59862;47.732;7.346;2023-03-19T06:50:14;97984.36;;;10.26;56.29
71996;BME280;59862;47.732;7.346;2023-03-19T06:52:45;97987.70;;;10.28;55.79
71996;BME280;59862;47.732;7.346;2023-03-19T06:55:12;97984.43;;;10.36;56.14
71996;BME280;59862;47.732;7.346;2023-03-19T06:57:40;97989.94;;;10.39;56.05
71996;BME280;59862;47.732;7.346;2023-03-19T07:00:08;97990.10;;;10.37;56.29
71996;BME280;59862;47.732;7.346;2023-03-19T07:02:36;97994.02;;;10.49;56.04
71996;BME280;59862;47.732;7.346;2023-03-19T07:05:04;97998.80;;;10.58;55.81
71996;BME280;59862;47.732;7.346;2023-03-19T07:07:32;97987.11;;;10.70;55.33
71996;BME280;59862;47.732;7.346;2023-03-19T07:09:59;97987.11;;;10.70;55.33
71996;BME280;59862;47.732;7.346;2023-03-19T07:12:27;97992.94;;;10.73;55.70
71996;BME280;59862;47.732;7.346;2023-03-19T07:14:55;97994.02;;;10.83;55.54
71996;BME280;59862;47.732;7.346;2023-03-19T07:17:23;97991.98;;;10.85;55.39
71996;BME280;59862;47.732;7.346;2023-03-19T07:19:51;97996.05;;;10.95;55.72
71996;BME280;59862;47.732;7.346;2023-03-19T07:22:19;97986.44;;;11.11;55.83
71996;BME280;59862;47.732;7.346;2023-03-19T07:24:47;97986.77;;;11.37;55.20
71996;BME280;59862;47.732;7.346;2023-03-19T07:27:14;97996.20;;;11.59;55.06
71996;BME280;59862;47.732;7.346;2023-03-19T07:29:42;98003.63;;;11.71;54.28
71996;BME280;59862;47.732;7.346;2023-03-19T07:32:10;98003.30;;;11.81;54.30
71996;BME280;59862;47.732;7.346;2023-03-19T07:34:38;98016.58;;;11.82;53.84
71996;BME280;59862;47.732;7.346;2023-03-19T07:37:06;98013.95;;;11.89;54.28
71996;BME280;59862;47.732;7.346;2023-03-19T07:39:34;98018.70;;;11.97;53.40
71996;BME280;59862;47.732;7.346;2023-03-19T07:42:01;98024.64;;;11.82;53.62
71996;BME280;59862;47.732;7.346;2023-03-19T07:44:29;98017.25;;;11.80;54.53
71996;BME280;59862;47.732;7.346;2023-03-19T07:46:56;98018.02;;;11.85;54.41
71996;BME280;59862;47.732;7.346;2023-03-19T07:49:24;98023.17;;;11.90;54.45
71996;BME280;59862;47.732;7.346;2023-03-19T07:51:51;98023.61;;;12.04;54.66
71996;BME280;59862;47.732;7.346;2023-03-19T07:54:19;98020.14;;;12.00;54.05
71996;BME280;59862;47.732;7.346;2023-03-19T07:56:48;98027.70;;;12.00;54.26
71996;BME280;59862;47.732;7.346;2023-03-19T07:59:16;98021.39;;;11.97;54.43
71996;BME280;59862;47.732;7.346;2023-03-19T08:01:43;98024.65;;;12.03;54.29
71996;BME280;59862;47.732;7.346;2023-03-19T08:04:10;98021.25;;;12.05;54.28
71996;BME280;59862;47.732;7.346;2023-03-19T08:06:39;98019.50;;;12.08;54.29
71996;BME280;59862;47.732;7.346;2023-03-19T08:09:07;98019.84;;;12.09;54.97
71996;BME280;59862;47.732;7.346;2023-03-19T08:11:35;98021.63;;;12.13;54.91
71996;BME280;59862;47.732;7.346;2023-03-19T08:14:03;98017.66;;;11.98;55.34
71996;BME280;59862;47.732;7.346;2023-03-19T08:16:30;98019.27;;;12.03;55.09
71996;BME280;59862;47.732;7.346;2023-03-19T08:18:58;98024.95;;;11.83;55.46
71996;BME280;59862;47.732;7.346;2023-03-19T08:21:25;98015.34;;;11.85;56.05
71996;BME280;59862;47.732;7.346;2023-03-19T08:23:53;98019.70;;;11.96;56.01
71996;BME280;59862;47.732;7.346;2023-03-19T08:26:20;98019.06;;;12.15;56.04
71996;BME280;59862;47.732;7.346;2023-03-19T08:28:47;98024.64;;;12.25;55.29
71996;BME280;59862;47.732;7.346;2023-03-19T08:31:15;98027.59;;;12.30;55.78
71996;BME280;59862;47.732;7.346;2023-03-19T08:33:43;98020.79;;;12.34;55.41
71996;BME280;59862;47.732;7.346;2023-03-19T08:36:12;98022.81;;;12.53;55.54
71996;BME280;59862;47.732;7.346;2023-03-19T08:38:41;98022.62;;;12.71;55.57
71996;BME280;59862;47.732;7.346;2023-03-19T08:41:09;98026.41;;;12.77;54.81
71996;BME280;59862;47.732;7.346;2023-03-19T08:43:37;98028.98;;;12.91;54.62
71996;BME280;59862;47.732;7.346;2023-03-19T08:46:05;98031.77;;;12.87;54.60
71996;BME280;59862;47.732;7.346;2023-03-19T08:48:33;98029.78;;;13.13;54.12
71996;BME280;59862;47.732;7.346;2023-03-19T08:51:02;98038.02;;;13.22;54.17
71996;BME280;59862;47.732;7.346;2023-03-19T08:53:30;98037.31;;;13.24;54.15
71996;BME280;59862;47.732;7.346;2023-03-19T08:56:02;98040.91;;;12.93;54.78
71996;BME280;59862;47.732;7.346;2023-03-19T08:58:30;98041.62;;;12.91;55.47
71996;BME280;59862;47.732;7.346;2023-03-19T09:01:09;98044.22;;;12.88;55.54
71996;BME280;59862;47.732;7.346;2023-03-19T09:03:39;98047.77;;;12.95;55.87
71996;BME280;59862;47.732;7.346;2023-03-19T09:06:09;98044.09;;;12.86;55.73
71996;BME280;59862;47.732;7.346;2023-03-19T09:08:37;98048.89;;;12.80;56.03
71996;BME280;59862;47.732;7.346;2023-03-19T09:11:05;98048.03;;;12.73;56.72
71996;BME280;59862;47.732;7.346;2023-03-19T09:13:34;98050.72;;;12.73;56.88
71996;BME280;59862;47.732;7.346;2023-03-19T09:16:02;98046.80;;;12.65;57.12
71996;BME280;59862;47.732;7.346;2023-03-19T09:18:30;98047.02;;;12.63;57.30
71996;BME280;59862;47.732;7.346;2023-03-19T09:20:58;98055.47;;;12.71;57.55
71996;BME280;59862;47.732;7.346;2023-03-19T09:23:26;98054.69;;;12.77;57.46
71996;BME280;59862;47.732;7.346;2023-03-19T09:25:53;98051.94;;;12.70;57.63
71996;BME280;59862;47.732;7.346;2023-03-19T09:28:21;98059.45;;;12.92;57.85
71996;BME280;59862;47.732;7.346;2023-03-19T09:30:49;98062.91;;;12.97;57.40
71996;BME280;59862;47.732;7.346;2023-03-19T09:33:18;98063.66;;;13.12;57.71
71996;BME280;59862;47.732;7.346;2023-03-19T09:35:51;98065.77;;;13.16;57.29
71996;BME280;59862;47.732;7.346;2023-03-19T09:38:20;98071.19;;;13.06;57.67
71996;BME280;59862;47.732;7.346;2023-03-19T09:49:01;98062.07;;;12.96;58.04
71996;BME280;59862;47.732;7.346;2023-03-19T09:51:34;98063.45;;;13.13;58.17
71996;BME280;59862;47.732;7.346;2023-03-19T09:54:03;98055.70;;;13.14;58.06
71996;BME280;59862;47.732;7.346;2023-03-19T09:56:32;98053.55;;;13.37;57.52
71996;BME280;59862;47.732;7.346;2023-03-19T09:59:00;98054.03;;;13.54;56.91
71996;BME280;59862;47.732;7.346;2023-03-19T10:01:36;98059.39;;;13.47;56.73
71996;BME280;59862;47.732;7.346;2023-03-19T10:06:45;98047.84;;;13.84;57.28
71996;BME280;59862;47.732;7.346;2023-03-19T10:09:40;98046.66;;;14.19;56.38
71996;BME280;59862;47.732;7.346;2023-03-19T10:12:21;98021.10;;;14.02;55.39
71996;BME280;59862;47.732;7.346;2023-03-19T10:17:43;98049.41;;;13.95;55.58
71996;BME280;59862;47.732;7.346;2023-03-19T10:22:49;98041.83;;;13.82;56.10
71996;BME280;59862;47.732;7.346;2023-03-19T10:25:25;98046.83;;;13.98;56.25
71996;BME280;59862;47.732;7.346;2023-03-19T10:27:59;98045.44;;;14.28;55.57
71996;BME280;59862;47.732;7.346;2023-03-19T10:30:29;98042.23;;;14.28;55.58
71996;BME280;59862;47.732;7.346;2023-03-19T10:33:37;98055.19;;;14.16;55.54
71996;BME280;59862;47.732;7.346;2023-03-19T10:35:43;98047.09;;;14.16;55.71
71996;BME280;59862;47.732;7.346;2023-03-19T10:38:25;98047.27;;;14.14;55.26
71996;BME280;59862;47.732;7.346;2023-03-19T10:43:56;98048.19;;;14.41;54.84
71996;BME280;59862;47.732;7.346;2023-03-19T10:46:23;98047.16;;;14.35;55.25
71996;BME280;59862;47.732;7.346;2023-03-19T10:48:50;98038.84;;;14.30;54.88
71996;BME280;59862;47.732;7.346;2023-03-19T10:51:25;98044.64;;;14.34;55.32
71996;BME280;59862;47.732;7.346;2023-03-19T10:53:54;98044.26;;;14.76;55.06
71996;BME280;59862;47.732;7.346;2023-03-19T10:56:25;98047.36;;;14.80;54.40
71996;BME280;59862;47.732;7.346;2023-03-19T10:59:00;98046.45;;;14.77;54.21
71996;BME280;59862;47.732;7.346;2023-03-19T11:01:33;98039.77;;;14.86;53.79
71996;BME280;59862;47.732;7.346;2023-03-19T11:04:10;98045.09;;;14.83;53.66
71996;BME280;59862;47.732;7.346;2023-03-19T11:06:33;98046.95;;;15.31;53.16
71996;BME280;59862;47.732;7.346;2023-03-19T11:11:59;98044.55;;;14.90;53.11
71996;BME280;59862;47.732;7.346;2023-03-19T11:14:30;98047.09;;;15.20;53.02
71996;BME280;59862;47.732;7.346;2023-03-19T11:17:20;98039.23;;;14.99;53.12
71996;BME280;59862;47.732;7.346;2023-03-19T11:22:52;98032.88;;;15.03;53.51
71996;BME280;59862;47.732;7.346;2023-03-19T11:25:26;98046.27;;;15.27;53.01
71996;BME280;59862;47.732;7.346;2023-03-19T11:28:13;98045.60;;;14.89;52.94
71996;BME280;59862;47.732;7.346;2023-03-19T11:30:56;98041.15;;;14.47;53.23
71996;BME280;59862;47.732;7.346;2023-03-19T11:36:25;98046.05;;;14.23;54.08
71996;BME280;59862;47.732;7.346;2023-03-19T11:39:02;98044.75;;;14.30;54.69
71996;BME280;59862;47.732;7.346;2023-03-19T11:44:23;98041.70;;;14.16;55.25
71996;BME280;59862;47.732;7.346;2023-03-19T11:55:11;98034.70;;;14.54;54.24
71996;BME280;59862;47.732;7.346;2023-03-19T11:58:01;98033.57;;;14.03;54.53
71996;BME280;59862;47.732;7.346;2023-03-19T12:00:41;98022.16;;;14.01;55.36
71996;BME280;59862;47.732;7.346;2023-03-19T12:06:06;98029.63;;;14.55;54.35
71996;BME280;59862;47.732;7.346;2023-03-19T12:09:01;98021.48;;;14.81;54.58
71996;BME280;59862;47.732;7.346;2023-03-19T12:12:00;98028.01;;;15.09;53.25
71996;BME280;59862;47.732;7.346;2023-03-19T12:14:46;98024.16;;;15.01;53.62
71996;BME280;59862;47.732;7.346;2023-03-19T12:17:22;98026.55;;;15.06;53.25
71996;BME280;59862;47.732;7.346;2023-03-19T12:25:52;98018.28;;;14.62;54.98
71996;BME280;59862;47.732;7.346;2023-03-19T12:28:29;98023.89;;;14.74;54.77
71996;BME280;59862;47.732;7.346;2023-03-19T12:31:26;98027.33;;;14.72;54.70
71996;BME280;59862;47.732;7.346;2023-03-19T12:34:04;98022.94;;;14.77;55.28
71996;BME280;59862;47.732;7.346;2023-03-19T12:36:32;98024.73;;;14.55;55.52
71996;BME280;59862;47.732;7.346;2023-03-19T12:39:01;98023.44;;;14.24;56.46
71996;BME280;59862;47.732;7.346;2023-03-19T12:41:32;98029.61;;;13.92;57.47
71996;BME280;59862;47.732;7.346;2023-03-19T12:46:56;98020.91;;;14.16;57.41
71996;BME280;59862;47.732;7.346;2023-03-19T12:49:48;98022.80;;;14.16;58.42
71996;BME280;59862;47.732;7.346;2023-03-19T12:52:17;98030.31;;;13.84;59.51
71996;BME280;59862;47.732;7.346;2023-03-19T12:54:47;98025.02;;;13.93;59.73
71996;BME280;59862;47.732;7.346;2023-03-19T12:57:40;98029.34;;;14.24;58.96
71996;BME280;59862;47.732;7.346;2023-03-19T13:00:16;98023.53;;;14.14;59.05
71996;BME280;59862;47.732;7.346;2023-03-19T13:02:48;98020.91;;;14.10;57.62
71996;BME280;59862;47.732;7.346;2023-03-19T13:05:29;98014.71;;;14.16;57.58
71996;BME280;59862;47.732;7.346;2023-03-19T13:10:53;98013.05;;;14.28;55.55
71996;BME280;59862;47.732;7.346;2023-03-19T13:16:16;98014.95;;;14.73;55.49
71996;BME280;59862;47.732;7.346;2023-03-19T13:18:47;98013.69;;;14.95;55.35
71996;BME280;59862;47.732;7.346;2023-03-19T13:21:22;98004.86;;;15.33;54.39
71996;BME280;59862;47.732;7.346;2023-03-19T13:24:00;98014.91;;;14.99;56.00
71996;BME280;59862;47.732;7.346;2023-03-19T13:26:27;98012.25;;;14.34;57.15
71996;BME280;59862;47.732;7.346;2023-03-19T13:29:00;98010.45;;;14.24;58.06
71996;BME280;59862;47.732;7.346;2023-03-19T13:31:32;98008.63;;;13.88;59.08
71996;BME280;59862;47.732;7.346;2023-03-19T13:34:05;98009.48;;;13.17;59.83
71996;BME280;59862;47.732;7.346;2023-03-19T13:36:30;98020.95;;;12.98;60.55
71996;BME280;59862;47.732;7.346;2023-03-19T13:38:59;98026.67;;;12.82;60.97
71996;BME280;59862;47.732;7.346;2023-03-19T13:46:52;98031.21;;;11.65;70.03
71996;BME280;59862;47.732;7.346;2023-03-19T13:49:35;98031.79;;;11.35;71.37
71996;BME280;59862;47.732;7.346;2023-03-19T13:54:40;98026.16;;;11.16;73.17
71996;BME280;59862;47.732;7.346;2023-03-19T13:57:16;98015.78;;;11.27;72.93
71996;BME280;59862;47.732;7.346;2023-03-19T13:59:36;98024.44;;;11.73;72.05
71996;BME280;59862;47.732;7.346;2023-03-19T14:05:07;98014.99;;;12.58;66.48
71996;BME280;59862;47.732;7.346;2023-03-19T14:07:38;98014.40;;;14.28;62.90
71996;BME280;59862;47.732;7.346;2023-03-19T14:10:19;98006.12;;;15.81;57.12
71996;BME280;59862;47.732;7.346;2023-03-19T14:12:39;98004.30;;;17.84;51.40
71996;BME280;59862;47.732;7.346;2023-03-19T14:15:15;98012.34;;;18.50;48.71
71996;BME280;59862;47.732;7.346;2023-03-19T14:17:54;98002.11;;;18.98;46.92
71996;BME280;59862;47.732;7.346;2023-03-19T14:20:25;98003.86;;;18.58;47.63
71996;BME280;59862;47.732;7.346;2023-03-19T14:25:25;98001.30;;;18.86;45.56
71996;BME280;59862;47.732;7.346;2023-03-19T14:27:59;97996.06;;;19.31;45.02